createdAt,value
2022-12-14T00:01:45.116Z,98859.84
2022-12-14T00:04:16.593Z,98850.16
2022-12-14T00:06:43.589Z,98840.31
2022-12-14T00:09:10.585Z,98820.91
2022-12-14T00:11:37.539Z,98834.44
2022-12-14T00:14:05.107Z,98832.44
2022-12-14T00:16:34.275Z,98830.47
2022-12-14T00:19:02.474Z,98833.06
2022-12-14T00:21:29.738Z,98830.59
2022-12-14T00:23:59.091Z,98823.94
2022-12-14T00:26:28.577Z,98824.44
2022-12-14T00:28:57.490Z,98811.38
2022-12-14T00:31:25.784Z,98821.84
2022-12-14T00:33:53.105Z,98805.19
2022-12-14T00:36:20.553Z,98802.50
2022-12-14T00:38:47.914Z,98799.53
2022-12-14T00:41:14.910Z,98810.25
2022-12-14T00:43:42.294Z,98794.00
2022-12-14T00:46:09.471Z,98786.75
2022-12-14T00:48:36.552Z,98799.28
2022-12-14T00:51:03.871Z,98804.50
2022-12-14T00:53:31.292Z,98800.22
2022-12-14T00:56:05.836Z,98793.56
2022-12-14T00:58:32.980Z,98774.72
2022-12-14T01:01:06.514Z,98771.31
2022-12-14T01:03:34.370Z,98784.09
2022-12-14T01:06:02.301Z,98778.63
2022-12-14T01:08:35.940Z,98768.47
2022-12-14T01:11:07.446Z,98773.06
2022-12-14T01:13:35.975Z,98768.25
2022-12-14T01:16:08.854Z,98768.44
2022-12-14T01:18:37.885Z,98749.75
2022-12-14T01:21:17.601Z,98741.28
2022-12-14T01:23:46.485Z,98743.44
2022-12-14T01:26:15.097Z,98740.47
2022-12-14T01:28:42.593Z,98748.53
2022-12-14T01:31:15.110Z,98744.81
2022-12-14T01:33:42.946Z,98745.06
2022-12-14T01:36:12.488Z,98739.56
2022-12-14T01:38:39.523Z,98745.44
2022-12-14T01:41:07.813Z,98745.34
2022-12-14T01:43:53.268Z,98750.44
2022-12-14T01:46:35.520Z,98736.06
2022-12-14T01:49:12.161Z,98744.97
2022-12-14T02:07:00.829Z,98715.06
2022-12-14T02:09:32.843Z,98691.81
2022-12-14T02:17:13.664Z,98716.78
2022-12-14T02:19:44.087Z,98705.59
2022-12-14T02:22:42.560Z,98692.63
2022-12-14T02:25:37.258Z,98691.59
2022-12-14T02:28:22.109Z,98694.69
2022-12-14T02:31:20.226Z,98683.72
2022-12-14T02:33:53.473Z,98697.84
2022-12-14T02:36:38.308Z,98689.59
2022-12-14T02:39:23.582Z,98689.03
2022-12-14T02:42:13.797Z,98692.75
2022-12-14T02:44:55.906Z,98620.66
2022-12-14T02:47:37.248Z,98689.88
2022-12-14T02:50:33.381Z,98698.97
2022-12-14T02:53:33.047Z,98696.25
2022-12-14T02:56:07.487Z,98692.22
2022-12-14T02:58:41.608Z,98677.28
2022-12-14T03:01:13.561Z,98690.88
2022-12-14T03:03:41.690Z,98689.28
2022-12-14T03:06:26.278Z,98667.97
2022-12-14T03:09:05.146Z,98670.34
2022-12-14T03:11:41.435Z,98623.78
2022-12-14T03:14:23.218Z,98658.75
2022-12-14T03:16:52.134Z,98663.16
2022-12-14T03:19:25.060Z,98626.50
2022-12-14T03:22:03.567Z,98642.19
2022-12-14T03:24:36.856Z,98639.13
2022-12-14T03:27:15.525Z,98634.19
2022-12-14T03:29:50.126Z,98627.13
2022-12-14T03:32:22.930Z,98634.19
2022-12-14T03:34:59.151Z,98627.06
2022-12-14T03:37:53.214Z,98627.88
2022-12-14T03:40:28.899Z,98629.53
2022-12-14T03:43:35.495Z,98618.50
2022-12-14T03:46:12.912Z,98616.72
2022-12-14T03:48:52.454Z,98627.78
2022-12-14T03:51:51.626Z,98587.78
2022-12-14T03:54:40.212Z,98626.06
2022-12-14T03:57:26.295Z,98630.19
2022-12-14T04:00:09.538Z,98644.53
2022-12-14T04:02:48.599Z,98633.84
2022-12-14T04:05:22.697Z,98617.50
2022-12-14T04:08:00.683Z,98630.50
2022-12-14T04:10:54.180Z,98619.06
2022-12-14T04:13:44.532Z,98619.88
2022-12-14T04:16:41.130Z,98623.97
2022-12-14T04:19:14.527Z,98626.81
2022-12-14T04:21:59.267Z,98608.19
2022-12-14T04:24:57.154Z,98615.34
2022-12-14T04:27:37.876Z,98587.06
2022-12-14T04:30:06.843Z,98609.06
2022-12-14T04:32:56.721Z,98609.59
2022-12-14T04:35:33.525Z,98601.34
2022-12-14T04:38:27.728Z,98601.34
2022-12-14T04:41:03.094Z,98607.59
2022-12-14T04:43:36.158Z,98589.06
2022-12-14T04:46:11.266Z,98605.47
2022-12-14T04:49:02.602Z,98611.69
2022-12-14T04:51:38.922Z,98598.59
2022-12-14T04:54:43.168Z,98614.94
2022-12-14T04:57:24.156Z,98618.59
2022-12-14T04:59:51.705Z,98613.38
2022-12-14T05:03:04.817Z,98606.19
2022-12-14T05:05:48.088Z,98613.50
2022-12-14T05:08:20.681Z,98608.81
2022-12-14T05:11:15.163Z,98590.41
2022-12-14T05:13:50.358Z,98592.59
2022-12-14T05:16:20.243Z,98601.63
2022-12-14T05:18:47.322Z,98608.44
2022-12-14T05:21:32.963Z,98616.41
2022-12-14T05:24:01.831Z,98604.16
2022-12-14T05:26:30.338Z,98604.53
2022-12-14T05:28:57.431Z,98604.72
2022-12-14T05:31:25.368Z,98602.19
2022-12-14T05:33:52.322Z,98606.63
2022-12-14T05:36:19.855Z,98585.06
2022-12-14T05:38:47.345Z,98599.81
2022-12-14T05:41:15.292Z,98587.81
2022-12-14T05:43:42.599Z,98588.38
2022-12-14T05:46:11.900Z,98518.22
2022-12-14T05:48:39.107Z,98606.31
2022-12-14T05:51:11.534Z,98597.03
2022-12-14T05:53:39.507Z,98601.19
2022-12-14T05:56:10.535Z,98593.63
2022-12-14T05:58:38.886Z,98590.44
2022-12-14T06:01:11.593Z,98598.44
2022-12-14T06:03:41.055Z,98584.81
2022-12-14T06:06:10.397Z,98580.16
2022-12-14T06:08:43.598Z,98591.75
2022-12-14T06:11:19.384Z,98596.25
2022-12-14T06:13:46.623Z,98583.47
2022-12-14T06:16:22.454Z,98579.97
2022-12-14T06:18:52.638Z,98582.38
2022-12-14T06:21:25.683Z,98601.19
2022-12-14T06:23:53.931Z,98598.25
2022-12-14T06:26:21.550Z,98602.44
2022-12-14T06:28:49.048Z,98601.97
2022-12-14T06:31:19.059Z,98582.97
2022-12-14T06:33:46.733Z,98601.47
2022-12-14T06:36:18.988Z,98600.59
2022-12-14T06:38:46.493Z,98601.34
2022-12-14T06:41:13.505Z,98610.19
2022-12-14T06:43:40.623Z,98615.09
2022-12-14T06:46:15.611Z,98624.91
2022-12-14T06:48:43.571Z,98627.59
2022-12-14T06:51:10.540Z,98626.53
2022-12-14T06:53:37.498Z,98628.31
2022-12-14T06:56:15.564Z,98566.63
2022-12-14T06:58:43.075Z,98600.38
2022-12-14T07:01:15.742Z,98620.69
2022-12-14T07:03:43.768Z,98633.09
2022-12-14T07:06:10.785Z,98639.06
2022-12-14T07:08:39.285Z,98643.22
2022-12-14T07:11:10.702Z,98632.25
2022-12-14T07:13:38.380Z,98635.13
2022-12-14T07:16:07.028Z,98639.66
2022-12-14T07:18:34.850Z,98620.63
2022-12-14T07:21:09.654Z,98646.25
2022-12-14T07:23:38.575Z,98636.31
2022-12-14T07:26:18.536Z,98665.94
2022-12-14T07:28:46.786Z,98642.03
2022-12-14T07:31:23.601Z,98666.00
2022-12-14T07:33:55.482Z,98666.22
2022-12-14T07:36:24.456Z,98657.00
2022-12-14T07:38:52.062Z,98661.50
2022-12-14T07:41:23.412Z,98670.84
2022-12-14T07:43:52.464Z,98653.63
2022-12-14T07:46:25.325Z,98670.34
2022-12-14T07:48:55.718Z,98665.13
2022-12-14T07:51:28.762Z,98675.59
2022-12-14T07:53:56.423Z,98675.88
2022-12-14T07:56:26.054Z,98690.78
2022-12-14T07:58:55.444Z,98682.06
2022-12-14T08:01:31.646Z,98690.72
2022-12-14T08:04:01.315Z,98695.69
2022-12-14T08:06:29.493Z,98696.72
2022-12-14T08:08:57.433Z,98679.22
2022-12-14T08:11:25.472Z,98688.34
2022-12-14T08:14:03.619Z,98688.78
2022-12-14T08:16:30.775Z,98684.84
2022-12-14T08:18:59.239Z,98687.31
2022-12-14T08:21:27.408Z,98670.84
2022-12-14T08:23:55.454Z,98680.63
2022-12-14T08:26:24.929Z,98695.69
2022-12-14T08:28:54.942Z,98694.13
2022-12-14T08:31:25.992Z,98670.66
2022-12-14T08:33:53.096Z,98650.03
2022-12-14T08:36:23.080Z,98704.91
2022-12-14T08:38:57.896Z,98700.97
2022-12-14T08:41:26.256Z,98710.53
2022-12-14T08:43:56.421Z,98720.00
2022-12-14T08:46:24.301Z,98720.72
2022-12-14T08:48:53.336Z,98714.84
2022-12-14T08:51:21.777Z,98716.69
2022-12-14T08:53:49.103Z,98716.84
2022-12-14T08:56:19.321Z,98726.63
2022-12-14T08:58:46.682Z,98729.56
2022-12-14T09:01:32.369Z,98721.59
2022-12-14T09:04:06.816Z,98732.72
2022-12-14T09:06:38.162Z,98743.56
2022-12-14T09:09:13.351Z,98742.16
2022-12-14T09:11:43.983Z,98752.47
2022-12-14T09:14:11.224Z,98754.25
2022-12-14T09:16:38.532Z,98760.75
2022-12-14T09:19:06.238Z,98769.31
2022-12-14T09:21:33.438Z,98772.59
2022-12-14T09:24:00.600Z,98766.97
2022-12-14T09:26:28.298Z,98755.34
2022-12-14T09:28:57.087Z,98785.72
2022-12-14T09:31:26.650Z,98785.78
2022-12-14T09:33:55.043Z,98795.38
2022-12-14T09:36:24.648Z,98800.75
2022-12-14T09:38:55.463Z,98800.19
2022-12-14T09:41:36.510Z,98804.47
2022-12-14T09:44:27.032Z,98819.63
2022-12-14T09:47:15.424Z,98761.25
2022-12-14T09:50:00.490Z,98830.34
2022-12-14T09:52:45.514Z,98817.41
2022-12-14T09:55:35.419Z,98840.59
2022-12-14T09:58:22.218Z,98849.84
2022-12-14T10:00:55.118Z,98851.09
2022-12-14T10:04:06.580Z,98865.25
2022-12-14T10:06:52.236Z,98866.13
2022-12-14T10:09:24.877Z,98880.53
2022-12-14T10:12:07.301Z,98879.81
2022-12-14T10:15:25.478Z,98881.63
2022-12-14T10:18:17.569Z,98889.84
2022-12-14T10:21:29.598Z,98893.22
2022-12-14T10:24:02.716Z,98894.53
2022-12-14T10:26:38.482Z,98884.19
2022-12-14T10:29:18.175Z,98893.84
2022-12-14T10:31:56.023Z,98909.66
2022-12-14T10:34:28.287Z,98912.47
2022-12-14T10:37:12.542Z,98895.38
2022-12-14T10:40:15.515Z,98922.56
2022-12-14T10:43:22.168Z,98939.00
2022-12-14T10:46:10.112Z,98949.94
2022-12-14T10:49:05.474Z,98952.78
2022-12-14T10:52:04.815Z,98955.44
2022-12-14T10:54:37.388Z,98967.25
2022-12-14T10:57:05.206Z,98960.41
2022-12-14T10:59:43.702Z,98970.16
2022-12-14T11:02:21.933Z,98981.94
2022-12-14T11:04:58.132Z,98980.28
2022-12-14T11:07:37.335Z,98991.25
2022-12-14T11:10:27.680Z,98992.34
2022-12-14T11:13:05.677Z,98990.53
2022-12-14T11:15:40.693Z,99010.63
2022-12-14T11:18:16.824Z,99026.03
2022-12-14T11:20:59.769Z,99023.50
2022-12-14T11:23:36.504Z,99025.69
2022-12-14T11:26:07.193Z,99033.13
2022-12-14T11:28:45.906Z,99026.66
2022-12-14T11:31:37.428Z,99050.16
2022-12-14T11:34:07.433Z,99049.84
2022-12-14T11:36:34.377Z,99072.88
2022-12-14T11:39:06.144Z,99077.13
2022-12-14T11:41:46.739Z,99088.97
2022-12-14T11:44:16.500Z,99089.84
2022-12-14T11:46:48.591Z,99093.19
2022-12-14T11:49:39.928Z,99110.25
2022-12-14T11:52:19.935Z,99095.97
2022-12-14T11:54:52.830Z,99124.34
2022-12-14T11:57:28.122Z,99113.31
2022-12-14T11:59:58.806Z,99141.66
2022-12-14T12:02:31.633Z,99156.00
2022-12-14T12:05:07.421Z,99141.53
2022-12-14T12:07:37.810Z,99158.72
2022-12-14T12:10:49.687Z,99174.53
2022-12-14T12:13:20.932Z,99182.59
2022-12-14T12:15:55.244Z,99167.66
2022-12-14T12:18:35.519Z,99195.34
2022-12-14T12:21:08.467Z,99202.72
2022-12-14T12:23:42.385Z,99207.81
2022-12-14T12:26:19.978Z,99210.16
2022-12-14T12:28:55.508Z,99225.13
2022-12-14T12:31:29.900Z,99233.97
2022-12-14T12:34:03.599Z,99237.84
2022-12-14T12:36:33.082Z,99246.91
2022-12-14T12:39:06.963Z,99252.41
2022-12-14T12:41:41.505Z,99258.97
2022-12-14T12:44:24.348Z,99265.03
2022-12-14T12:47:22.898Z,99277.09
2022-12-14T12:49:42.338Z,99281.13
2022-12-14T12:52:25.303Z,99280.00
2022-12-14T12:55:17.110Z,99288.16
2022-12-14T12:57:47.632Z,99297.84
2022-12-14T13:00:21.313Z,99307.75
2022-12-14T13:03:00.092Z,99318.50
2022-12-14T13:05:46.217Z,99322.25
2022-12-14T13:08:22.308Z,99309.09
2022-12-14T13:13:43.117Z,99333.50
2022-12-14T13:16:24.755Z,99356.47
2022-12-14T13:19:19.199Z,99345.66
2022-12-14T13:21:52.567Z,99369.53
2022-12-14T13:24:22.763Z,99375.13
2022-12-14T13:26:59.843Z,99382.38
2022-12-14T13:29:33.976Z,99389.13
2022-12-14T13:32:37.622Z,99399.22
2022-12-14T13:35:22.835Z,99402.34
2022-12-14T13:38:26.264Z,99411.66
2022-12-14T13:41:22.227Z,99414.81
2022-12-14T13:44:07.841Z,99429.84
2022-12-14T13:46:35.081Z,99429.47
2022-12-14T13:49:15.418Z,99430.88
2022-12-14T13:51:50.207Z,99386.88
2022-12-14T13:54:31.381Z,99444.34
2022-12-14T13:57:23.362Z,99452.84
2022-12-14T13:59:52.787Z,99460.09
2022-12-14T14:02:28.785Z,99459.34
2022-12-14T14:05:20.397Z,99469.69
2022-12-14T14:07:57.863Z,99472.81
2022-12-14T14:10:39.721Z,99466.44
2022-12-14T14:13:28.537Z,99476.19
2022-12-14T14:19:14.947Z,99476.06
2022-12-14T14:25:02.583Z,99512.28
2022-12-14T14:27:42.107Z,99498.31
2022-12-14T14:30:24.504Z,99512.03
2022-12-14T14:32:54.277Z,99507.63
2022-12-14T14:35:26.970Z,99496.81
2022-12-14T14:38:16.021Z,99493.41
2022-12-14T14:41:15.335Z,99513.78
2022-12-14T14:43:51.722Z,99517.31
2022-12-14T14:46:23.186Z,99520.97
2022-12-14T14:48:54.432Z,99518.84
2022-12-14T14:51:26.624Z,99511.22
2022-12-14T14:57:56.387Z,99548.31
2022-12-14T15:00:23.936Z,99535.66
2022-12-14T15:02:53.551Z,99565.31
2022-12-14T15:05:44.756Z,99569.81
2022-12-14T15:08:21.316Z,99578.59
2022-12-14T15:10:50.268Z,99544.81
2022-12-14T15:13:26.383Z,99582.66
2022-12-14T15:15:56.605Z,99582.94
2022-12-14T15:18:28.278Z,99587.50
2022-12-14T15:20:58.024Z,99593.94
2022-12-14T15:23:27.313Z,99597.81
2022-12-14T15:25:58.015Z,99586.75
2022-12-14T15:28:27.060Z,99605.88
2022-12-14T15:30:56.417Z,99609.47
2022-12-14T15:33:31.825Z,99589.38
2022-12-14T15:36:09.089Z,99612.00
2022-12-14T15:38:37.975Z,99601.50
2022-12-14T15:41:15.343Z,99577.78
2022-12-14T15:43:47.852Z,99621.69
2022-12-14T15:46:30.126Z,99618.63
2022-12-14T15:49:08.330Z,99628.22
2022-12-14T15:51:35.238Z,99638.28
2022-12-14T15:54:05.228Z,99635.94
2022-12-14T15:56:40.026Z,99451.66
2022-12-14T15:59:23.383Z,99636.28
2022-12-14T16:02:06.735Z,99649.97
2022-12-14T16:04:37.925Z,99651.13
2022-12-14T16:07:12.426Z,99653.16
2022-12-14T16:09:50.242Z,99665.28
2022-12-14T16:12:56.638Z,99664.31
2022-12-14T16:15:27.446Z,99673.63
2022-12-14T16:18:02.257Z,99673.44
2022-12-14T16:20:34.152Z,99681.34
2022-12-14T16:23:29.805Z,99689.44
2022-12-14T16:26:03.371Z,99690.94
2022-12-14T16:28:34.862Z,99693.66
2022-12-14T16:31:04.698Z,99695.50
2022-12-14T16:33:34.819Z,99706.75
2022-12-14T16:36:04.968Z,99700.94
2022-12-14T16:38:37.353Z,99699.41
2022-12-14T16:41:05.310Z,99705.25
2022-12-14T16:43:42.131Z,99708.97
2022-12-14T16:46:15.306Z,99718.28
2022-12-14T16:48:45.630Z,99706.84
2022-12-14T16:51:37.887Z,99733.84
2022-12-14T16:54:23.860Z,99729.63
2022-12-14T16:56:56.369Z,99727.66
2022-12-14T16:59:30.720Z,99719.41
2022-12-14T17:01:58.135Z,99735.75
2022-12-14T17:04:33.573Z,99699.41
2022-12-14T17:07:01.016Z,99739.81
2022-12-14T17:09:30.059Z,99744.91
2022-12-14T17:12:02.939Z,99690.09
2022-12-14T17:14:29.952Z,99733.78
2022-12-14T17:17:01.584Z,99753.72
2022-12-14T17:19:39.174Z,99753.72
2022-12-14T17:22:14.092Z,99764.03
2022-12-14T17:24:41.290Z,99764.91
2022-12-14T17:27:16.456Z,99768.25
2022-12-14T17:29:43.855Z,99778.44
2022-12-14T17:32:13.707Z,99761.03
2022-12-14T17:34:41.626Z,99776.31
2022-12-14T17:37:21.337Z,99777.22
2022-12-14T17:39:49.191Z,99779.75
2022-12-14T17:42:18.651Z,99793.53
2022-12-14T17:44:52.169Z,99799.59
2022-12-14T17:47:20.651Z,99781.06
2022-12-14T17:49:47.703Z,99803.56
2022-12-14T17:52:24.154Z,99784.53
2022-12-14T17:54:51.200Z,99800.56
2022-12-14T17:57:20.954Z,99812.09
2022-12-14T18:00:10.238Z,99822.34
2022-12-14T18:02:37.932Z,99815.91
2022-12-14T18:05:06.049Z,99817.50
2022-12-14T18:07:33.021Z,99813.88
2022-12-14T18:10:00.115Z,99813.50
2022-12-14T18:12:27.130Z,99825.91
2022-12-14T18:14:54.588Z,99830.84
2022-12-14T18:17:21.527Z,99824.41
2022-12-14T18:19:49.870Z,99812.84
2022-12-14T18:22:17.030Z,99843.97
2022-12-14T18:24:45.894Z,99847.09
2022-12-14T18:27:16.131Z,99851.22
2022-12-14T18:29:43.057Z,99854.66
2022-12-14T18:32:13.893Z,99856.31
2022-12-14T18:34:40.946Z,99862.13
2022-12-14T18:37:08.584Z,99865.72
2022-12-14T18:39:35.668Z,99860.72
2022-12-14T18:42:02.780Z,99869.34
2022-12-14T18:44:29.855Z,99870.16
2022-12-14T18:47:05.570Z,99876.88
2022-12-14T18:49:41.820Z,99873.38
2022-12-14T18:52:12.489Z,99881.09
2022-12-14T18:54:39.529Z,99877.50
2022-12-14T18:57:06.507Z,99883.84
2022-12-14T18:59:36.581Z,99884.25
2022-12-14T19:02:14.727Z,99899.53
2022-12-14T19:04:41.792Z,99895.31
2022-12-14T19:07:08.774Z,99892.97
2022-12-14T19:09:35.717Z,99896.38
2022-12-14T19:12:04.143Z,99915.13
2022-12-14T19:14:31.065Z,99917.06
2022-12-14T19:16:58.169Z,99918.41
2022-12-14T19:19:27.867Z,99933.31
2022-12-14T19:21:59.775Z,99928.91
2022-12-14T19:24:26.821Z,99938.81
2022-12-14T19:26:55.347Z,99945.53
2022-12-14T19:29:22.556Z,99940.66
2022-12-14T19:31:53.939Z,99935.06
2022-12-14T19:34:21.376Z,99938.28
2022-12-14T19:36:48.420Z,99946.13
2022-12-14T19:39:15.471Z,99939.75
2022-12-14T19:41:42.939Z,99963.16
2022-12-14T19:44:09.936Z,99946.50
2022-12-14T19:46:37.041Z,99965.00
2022-12-14T19:49:04.223Z,99965.00
2022-12-14T19:51:31.204Z,99952.78
2022-12-14T19:53:58.220Z,99978.03
2022-12-14T19:56:25.196Z,99965.88
2022-12-14T19:58:57.782Z,99987.44
2022-12-14T20:01:24.932Z,99995.16
2022-12-14T20:03:52.177Z,100008.03
2022-12-14T20:06:19.206Z,99923.47
2022-12-14T20:08:49.182Z,100015.84
2022-12-14T20:11:16.747Z,100012.03
2022-12-14T20:13:43.705Z,99996.28
2022-12-14T20:16:16.160Z,100026.53
2022-12-14T20:18:43.361Z,100014.66
2022-12-14T20:21:15.951Z,100033.19
2022-12-14T20:23:47.181Z,100045.03
2022-12-14T20:26:19.658Z,100044.06
2022-12-14T20:28:49.192Z,100039.13
2022-12-14T20:31:16.928Z,100054.91
2022-12-14T20:33:44.909Z,100052.97
2022-12-14T20:36:12.660Z,100053.72
2022-12-14T20:38:39.939Z,100043.72
2022-12-14T20:41:12.995Z,100063.53
2022-12-14T20:43:42.937Z,100048.19
2022-12-14T20:46:32.124Z,100061.84
2022-12-14T20:49:01.783Z,100068.28
2022-12-14T20:51:31.058Z,100065.38
2022-12-14T20:53:58.533Z,100073.69
2022-12-14T20:56:25.821Z,100083.09
2022-12-14T20:58:52.932Z,100079.19
2022-12-14T21:01:20.985Z,100086.31
2022-12-14T21:03:50.395Z,100093.16
2022-12-14T21:06:20.263Z,100096.59
2022-12-14T21:09:02.234Z,100102.59
2022-12-14T21:11:48.420Z,100091.09
2022-12-14T21:14:16.281Z,100093.66
2022-12-14T21:16:43.444Z,100106.97
2022-12-14T21:19:12.385Z,100111.28
2022-12-14T21:21:40.452Z,100114.25
2022-12-14T21:24:17.665Z,100106.09
2022-12-14T21:26:58.505Z,100114.06
2022-12-14T21:29:25.426Z,100112.25
2022-12-14T21:31:52.448Z,100125.31
2022-12-14T21:34:21.454Z,100132.16
2022-12-14T21:36:48.492Z,100111.97
2022-12-14T21:39:17.731Z,100126.09
2022-12-14T21:42:04.479Z,100129.44
2022-12-14T21:44:34.918Z,100125.78
2022-12-14T21:47:03.002Z,100128.56
2022-12-14T21:49:29.978Z,100131.88
2022-12-14T21:51:57.932Z,100143.81
2022-12-14T21:54:25.946Z,100138.59
2022-12-14T21:57:11.836Z,100140.16
2022-12-14T21:59:40.945Z,100128.25
2022-12-14T22:02:15.500Z,100137.03
2022-12-14T22:04:46.914Z,100114.59
2022-12-14T22:07:18.859Z,100133.34
2022-12-14T22:09:49.689Z,100047.06
2022-12-14T22:12:18.168Z,100143.53
2022-12-14T22:14:45.251Z,100131.41
2022-12-14T22:17:14.640Z,100154.94
2022-12-14T22:19:41.594Z,100152.47
2022-12-14T22:22:16.673Z,100149.06
2022-12-14T22:24:45.118Z,100149.84
2022-12-14T22:27:12.926Z,100158.34
2022-12-14T22:29:40.222Z,100165.66
2022-12-14T22:32:07.707Z,100175.63
2022-12-14T22:34:34.791Z,100151.78
2022-12-14T22:37:01.983Z,100177.75
2022-12-14T22:39:29.021Z,100172.59
2022-12-14T22:41:56.677Z,100187.31
2022-12-14T22:44:23.681Z,100191.19
2022-12-14T22:46:50.651Z,100197.81
2022-12-14T22:49:19.225Z,100206.88
2022-12-14T22:51:46.369Z,100206.09
2022-12-14T22:54:27.815Z,100206.44
2022-12-14T22:57:05.099Z,100190.31
2022-12-14T22:59:43.990Z,100216.16
2022-12-14T23:02:11.249Z,100217.72
2022-12-14T23:04:38.850Z,100202.13
2022-12-14T23:07:06.099Z,100217.25
2022-12-14T23:09:52.125Z,100227.44
2022-12-14T23:12:38.047Z,100203.91
2022-12-14T23:15:23.581Z,100232.97
2022-12-14T23:18:09.361Z,100232.41
2022-12-14T23:20:57.848Z,100213.03
2022-12-14T23:23:43.480Z,100228.97
2022-12-14T23:26:29.087Z,100238.22
2022-12-14T23:29:14.698Z,100241.22
2022-12-14T23:32:00.667Z,100244.09
2022-12-14T23:34:46.322Z,100253.59
2022-12-14T23:37:33.934Z,100234.44
2022-12-14T23:40:19.567Z,100232.78
2022-12-14T23:43:05.368Z,100244.19
2022-12-14T23:45:51.099Z,100245.31
2022-12-14T23:48:36.492Z,100231.91
2022-12-14T23:51:22.139Z,100234.69
2022-12-14T23:54:07.783Z,100251.91
2022-12-14T23:56:54.115Z,100245.41
2022-12-14T23:59:39.859Z,100246.19
